createdAt,value
2017-07-08T00:00:31.208Z,0
2017-07-08T00:01:12.147Z,0
2017-07-08T00:01:53.264Z,0
2017-07-08T00:02:34.120Z,0
2017-07-08T00:03:15.004Z,0
2017-07-08T00:03:55.884Z,0
2017-07-08T00:04:36.779Z,0
2017-07-08T00:05:17.670Z,0
2017-07-08T00:05:58.618Z,0
2017-07-08T00:06:39.506Z,0
2017-07-08T00:07:20.404Z,0
2017-07-08T00:08:01.294Z,0
2017-07-08T00:08:42.177Z,0
2017-07-08T00:09:23.070Z,0
2017-07-08T00:10:03.962Z,0
2017-07-08T00:10:44.849Z,0
2017-07-08T00:11:25.741Z,0
2017-07-08T00:12:06.647Z,0
2017-07-08T00:12:47.551Z,0
2017-07-08T00:13:28.446Z,0
2017-07-08T00:14:09.356Z,0
2017-07-08T00:14:50.247Z,0
2017-07-08T00:15:31.143Z,0
2017-07-08T00:16:12.028Z,0
2017-07-08T00:16:52.963Z,0
2017-07-08T00:17:33.811Z,0
2017-07-08T00:18:14.716Z,0
2017-07-08T00:18:55.627Z,0
2017-07-08T00:19:36.521Z,0
2017-07-08T00:20:17.430Z,0
2017-07-08T00:20:58.307Z,0
2017-07-08T00:21:39.196Z,0
2017-07-08T00:22:20.114Z,0
2017-07-08T00:23:00.991Z,0
2017-07-08T00:23:41.891Z,0
2017-07-08T00:24:22.780Z,0
2017-07-08T00:25:03.667Z,0
2017-07-08T00:25:44.563Z,0
2017-07-08T00:26:25.472Z,0
2017-07-08T00:27:06.370Z,0
2017-07-08T00:27:47.258Z,0
2017-07-08T00:28:28.158Z,0
2017-07-08T00:29:09.039Z,0
2017-07-08T00:29:49.933Z,0
2017-07-08T00:30:30.829Z,0
2017-07-08T00:31:11.739Z,0
2017-07-08T00:31:52.601Z,0
2017-07-08T00:32:33.608Z,0
2017-07-08T00:33:14.512Z,0
2017-07-08T00:33:55.400Z,0
2017-07-08T00:34:36.280Z,0
2017-07-08T00:35:17.173Z,0
2017-07-08T00:35:58.061Z,0
2017-07-08T00:36:38.947Z,0
2017-07-08T00:37:19.833Z,0
2017-07-08T00:38:00.740Z,0
2017-07-08T00:38:41.627Z,0
2017-07-08T00:39:22.514Z,0
2017-07-08T00:40:03.411Z,0
2017-07-08T00:40:44.313Z,0
2017-07-08T00:41:25.204Z,0
2017-07-08T00:42:06.101Z,0
2017-07-08T00:42:46.993Z,0
2017-07-08T00:43:27.904Z,0
2017-07-08T00:44:08.790Z,0
2017-07-08T00:44:49.712Z,0
2017-07-08T00:45:30.570Z,0
2017-07-08T00:46:11.466Z,0
2017-07-08T00:46:52.364Z,0
2017-07-08T00:47:33.256Z,0
2017-07-08T00:49:32.042Z,0
2017-07-08T00:50:12.943Z,0
2017-07-08T00:50:53.854Z,0
2017-07-08T00:51:34.743Z,0
2017-07-08T00:52:15.652Z,0
2017-07-08T00:52:56.539Z,0
2017-07-08T00:53:37.422Z,0
2017-07-08T00:54:18.319Z,0
2017-07-08T00:54:59.213Z,0
2017-07-08T00:55:40.109Z,0
2017-07-08T00:56:21.005Z,0
2017-07-08T00:57:01.908Z,0
2017-07-08T00:57:42.802Z,0
2017-07-08T00:58:23.700Z,0
2017-07-08T00:59:04.597Z,0
2017-07-08T00:59:45.525Z,0
2017-07-08T01:00:26.388Z,0
2017-07-08T01:01:07.303Z,0
2017-07-08T01:01:48.169Z,0
2017-07-08T01:02:29.048Z,0
2017-07-08T01:03:09.930Z,0
2017-07-08T01:03:50.852Z,0
2017-07-08T01:04:31.710Z,0
2017-07-08T01:05:12.596Z,0
2017-07-08T01:05:53.480Z,0
2017-07-08T01:06:34.373Z,0
2017-07-08T01:07:15.265Z,0
2017-07-08T01:07:56.158Z,0
2017-07-08T01:08:37.058Z,0
2017-07-08T01:09:17.958Z,0
2017-07-08T01:09:58.843Z,0
2017-07-08T01:10:39.722Z,0
2017-07-08T01:11:20.621Z,0
2017-07-08T01:12:01.502Z,0
2017-07-08T01:12:42.372Z,0
2017-07-08T01:13:23.252Z,0
2017-07-08T01:14:04.142Z,0
2017-07-08T01:14:45.033Z,0
2017-07-08T01:15:25.979Z,0
2017-07-08T01:16:06.864Z,0
2017-07-08T01:16:47.754Z,0
2017-07-08T01:17:28.642Z,0
2017-07-08T01:18:09.531Z,0
2017-07-08T01:18:50.425Z,0
2017-07-08T01:19:31.317Z,0
2017-07-08T01:20:12.204Z,0
2017-07-08T01:20:53.151Z,0
2017-07-08T01:21:34.016Z,0
2017-07-08T01:22:14.920Z,0
2017-07-08T01:22:55.786Z,0
2017-07-08T01:23:36.682Z,0
2017-07-08T01:24:17.577Z,0
2017-07-08T01:24:58.471Z,0
2017-07-08T01:25:39.381Z,0
2017-07-08T01:26:20.273Z,0
2017-07-08T01:27:01.166Z,0
2017-07-08T01:27:42.053Z,0
2017-07-08T01:28:22.949Z,0
2017-07-08T01:29:03.840Z,0
2017-07-08T01:29:44.735Z,0
2017-07-08T01:30:25.633Z,0
2017-07-08T01:31:06.516Z,0
2017-07-08T01:31:47.397Z,0
2017-07-08T01:32:28.292Z,0
2017-07-08T01:33:09.206Z,0
2017-07-08T01:33:50.096Z,0
2017-07-08T01:34:30.988Z,0
2017-07-08T01:35:11.882Z,0
2017-07-08T01:35:52.771Z,0
2017-07-08T01:36:33.667Z,0
2017-07-08T01:37:14.558Z,0
2017-07-08T01:37:55.462Z,0
2017-07-08T01:38:36.372Z,0
2017-07-08T01:39:17.276Z,0
2017-07-08T01:39:58.159Z,0
2017-07-08T01:40:39.056Z,0
2017-07-08T01:41:19.956Z,0
2017-07-08T01:42:00.849Z,0
2017-07-08T01:42:41.727Z,0
2017-07-08T01:43:22.612Z,0
2017-07-08T01:44:03.512Z,0
2017-07-08T01:44:44.401Z,0
2017-07-08T01:45:25.308Z,0
2017-07-08T01:46:06.185Z,0
2017-07-08T01:46:47.084Z,0
2017-07-08T01:47:27.971Z,0
2017-07-08T01:48:08.865Z,0
2017-07-08T01:48:49.758Z,0
2017-07-08T01:49:30.643Z,0
2017-07-08T01:50:11.547Z,0
2017-07-08T01:50:52.435Z,0
2017-07-08T01:51:33.333Z,0
2017-07-08T01:52:14.219Z,0
2017-07-08T01:52:55.116Z,0
2017-07-08T01:53:35.992Z,0
2017-07-08T01:54:16.891Z,0
2017-07-08T01:54:57.781Z,0
2017-07-08T01:55:38.663Z,0
2017-07-08T01:56:19.553Z,0
2017-07-08T01:57:00.430Z,0
2017-07-08T01:57:41.325Z,0
2017-07-08T01:58:22.240Z,0
2017-07-08T01:59:03.132Z,0
2017-07-08T01:59:44.029Z,0
2017-07-08T02:00:24.918Z,0
2017-07-08T02:01:05.801Z,0
2017-07-08T02:01:46.682Z,0
2017-07-08T02:02:27.568Z,0
2017-07-08T02:03:08.457Z,0
2017-07-08T02:03:49.354Z,0
2017-07-08T02:04:30.250Z,0
2017-07-08T02:05:11.146Z,0
2017-07-08T02:05:52.035Z,0
2017-07-08T02:06:32.928Z,0
2017-07-08T02:07:13.819Z,0
2017-07-08T02:07:54.716Z,0
2017-07-08T02:08:35.600Z,0
2017-07-08T02:09:16.496Z,0
2017-07-08T02:09:57.389Z,0
2017-07-08T02:10:38.275Z,0
2017-07-08T02:11:19.176Z,0
2017-07-08T02:12:00.058Z,0
2017-07-08T02:12:40.944Z,0
2017-07-08T02:13:21.846Z,0
2017-07-08T02:14:02.746Z,0
2017-07-08T02:14:43.622Z,0
2017-07-08T02:15:24.509Z,0
2017-07-08T02:16:05.408Z,0
2017-07-08T02:16:46.300Z,0
2017-07-08T02:17:27.185Z,0
2017-07-08T02:18:08.083Z,0
2017-07-08T02:18:48.975Z,0
2017-07-08T02:19:29.874Z,0
2017-07-08T02:20:10.766Z,0
2017-07-08T02:20:51.650Z,0
2017-07-08T02:21:32.537Z,0
2017-07-08T02:22:13.444Z,0
2017-07-08T02:22:54.327Z,0
2017-07-08T02:23:35.236Z,0
2017-07-08T02:24:16.137Z,0
2017-07-08T02:24:57.024Z,0
2017-07-08T02:25:37.911Z,0
2017-07-08T02:26:18.806Z,0
2017-07-08T02:26:59.692Z,0
2017-07-08T02:27:40.586Z,0
2017-07-08T02:28:21.486Z,0
2017-07-08T02:29:02.374Z,0
2017-07-08T02:29:43.260Z,0
2017-07-08T02:30:24.155Z,0
2017-07-08T02:31:05.037Z,0
2017-07-08T02:31:45.923Z,0
2017-07-08T02:32:26.809Z,0
2017-07-08T02:33:07.707Z,0
2017-07-08T02:33:48.610Z,0
2017-07-08T02:34:29.493Z,0
2017-07-08T02:35:10.380Z,0
2017-07-08T02:35:51.263Z,0
2017-07-08T02:36:32.152Z,0
2017-07-08T02:37:13.045Z,0
2017-07-08T02:37:53.935Z,0
2017-07-08T02:38:34.845Z,0
2017-07-08T02:39:15.780Z,0
2017-07-08T02:39:56.617Z,0
2017-07-08T02:40:37.501Z,0
2017-07-08T02:41:18.391Z,0
2017-07-08T02:41:59.285Z,0
2017-07-08T02:42:40.174Z,0
2017-07-08T02:43:21.071Z,0
2017-07-08T02:44:01.958Z,0
2017-07-08T02:44:42.829Z,0
2017-07-08T02:45:23.715Z,0
2017-07-08T02:46:04.607Z,0
2017-07-08T02:46:45.503Z,0
2017-07-08T02:47:26.388Z,0
2017-07-08T02:48:07.283Z,0
2017-07-08T02:48:48.175Z,0
2017-07-08T02:49:29.063Z,0
2017-07-08T02:50:09.962Z,0
2017-07-08T02:50:50.854Z,0
2017-07-08T02:51:31.747Z,0
2017-07-08T02:52:12.641Z,0
2017-07-08T02:52:53.527Z,0
2017-07-08T02:53:34.410Z,5
2017-07-08T02:54:15.299Z,5
2017-07-08T02:54:56.200Z,5
2017-07-08T02:55:37.090Z,5
2017-07-08T02:56:17.976Z,5
2017-07-08T02:56:58.883Z,5
2017-07-08T02:57:39.761Z,5
2017-07-08T02:58:20.653Z,5
2017-07-08T02:59:01.551Z,5
2017-07-08T02:59:42.439Z,5
2017-07-08T03:00:23.369Z,5
2017-07-08T03:01:04.237Z,5
2017-07-08T03:01:45.118Z,10
2017-07-08T03:02:26.022Z,10
2017-07-08T03:03:06.898Z,10
2017-07-08T03:03:47.783Z,10
2017-07-08T03:04:28.680Z,10
2017-07-08T03:05:09.580Z,10
2017-07-08T03:05:50.464Z,10
2017-07-08T03:06:31.348Z,10
2017-07-08T03:07:12.241Z,10
2017-07-08T03:07:53.139Z,10
2017-07-08T03:08:34.026Z,15
2017-07-08T03:09:14.921Z,15
2017-07-08T03:09:55.813Z,15
2017-07-08T03:10:36.701Z,15
2017-07-08T03:11:17.602Z,15
2017-07-08T03:11:58.490Z,15
2017-07-08T03:12:39.394Z,15
2017-07-08T03:13:20.307Z,20
2017-07-08T03:14:01.173Z,20
2017-07-08T03:14:42.056Z,20
2017-07-08T03:15:22.959Z,20
2017-07-08T03:16:03.848Z,20
2017-07-08T03:16:44.730Z,20
2017-07-08T03:17:25.637Z,20
2017-07-08T03:18:06.509Z,20
2017-07-08T03:18:47.407Z,20
2017-07-08T03:19:28.303Z,20
2017-07-08T03:20:09.183Z,20
2017-07-08T03:20:50.079Z,20
2017-07-08T03:21:30.967Z,20
2017-07-08T03:22:11.853Z,20
2017-07-08T03:22:52.757Z,20
2017-07-08T03:23:33.621Z,20
2017-07-08T03:24:14.515Z,20
2017-07-08T03:24:55.413Z,20
2017-07-08T03:25:36.299Z,20
2017-07-08T03:26:17.191Z,20
2017-07-08T03:26:58.058Z,25
2017-07-08T03:27:38.935Z,25
2017-07-08T03:28:19.842Z,25
2017-07-08T03:29:00.734Z,20
2017-07-08T03:29:41.627Z,20
2017-07-08T03:30:22.518Z,20
2017-07-08T03:31:03.410Z,20
2017-07-08T03:31:44.285Z,15
2017-07-08T03:32:25.172Z,15
2017-07-08T03:33:06.072Z,15
2017-07-08T03:33:46.958Z,15
2017-07-08T03:34:27.841Z,15
2017-07-08T03:35:08.736Z,10
2017-07-08T03:35:49.633Z,10
2017-07-08T03:36:30.527Z,10
2017-07-08T03:37:11.429Z,10
2017-07-08T03:37:52.315Z,10
2017-07-08T03:38:33.203Z,10
2017-07-08T03:39:14.105Z,15
2017-07-08T03:39:54.992Z,15
2017-07-08T03:40:35.880Z,15
2017-07-08T03:41:16.762Z,20
2017-07-08T03:41:57.651Z,20
2017-07-08T03:42:38.555Z,20
2017-07-08T03:43:19.460Z,20
2017-07-08T03:44:00.325Z,20
2017-07-08T03:44:41.209Z,20
2017-07-08T03:45:22.111Z,20
2017-07-08T03:46:02.991Z,20
2017-07-08T03:46:43.901Z,20
2017-07-08T03:47:24.811Z,20
2017-07-08T03:48:06.415Z,20
2017-07-08T03:48:47.304Z,20
2017-07-08T03:49:28.195Z,25
2017-07-08T03:50:09.074Z,25
2017-07-08T03:50:49.954Z,25
2017-07-08T03:51:30.838Z,25
2017-07-08T03:52:11.761Z,25
2017-07-08T03:52:52.613Z,25
2017-07-08T03:53:33.499Z,25
2017-07-08T03:54:14.414Z,25
2017-07-08T03:54:55.308Z,25
2017-07-08T03:55:36.174Z,25
2017-07-08T03:56:17.066Z,25
2017-07-08T03:56:57.958Z,30
2017-07-08T03:57:38.830Z,30
2017-07-08T03:58:19.721Z,35
2017-07-08T03:59:00.612Z,35
2017-07-08T03:59:41.497Z,40
2017-07-08T04:00:22.386Z,45
2017-07-08T04:01:03.299Z,45
2017-07-08T04:01:44.177Z,45
2017-07-08T04:02:25.061Z,50
2017-07-08T04:03:05.942Z,50
2017-07-08T04:03:46.835Z,50
2017-07-08T04:04:27.704Z,55
2017-07-08T04:05:08.571Z,55
2017-07-08T04:05:49.458Z,55
2017-07-08T04:06:30.370Z,60
2017-07-08T04:07:11.241Z,65
2017-07-08T04:07:52.125Z,65
2017-07-08T04:08:33.024Z,70
2017-07-08T04:09:13.894Z,70
2017-07-08T04:09:54.784Z,75
2017-07-08T04:10:35.674Z,75
2017-07-08T04:11:16.565Z,80
2017-07-08T04:11:57.442Z,80
2017-07-08T04:12:38.344Z,85
2017-07-08T04:13:19.245Z,85
2017-07-08T04:14:00.136Z,85
2017-07-08T04:14:41.040Z,85
2017-07-08T04:15:21.923Z,85
2017-07-08T04:16:02.819Z,90
2017-07-08T04:16:43.707Z,90
2017-07-08T04:17:24.590Z,90
2017-07-08T04:18:05.493Z,95
2017-07-08T04:18:46.381Z,95
2017-07-08T04:19:27.274Z,100
2017-07-08T04:20:08.177Z,100
2017-07-08T04:20:49.071Z,100
2017-07-08T04:21:29.970Z,100
2017-07-08T04:22:10.896Z,95
2017-07-08T04:22:51.785Z,95
2017-07-08T04:23:32.675Z,100
2017-07-08T04:24:13.565Z,100
2017-07-08T04:24:54.463Z,105
2017-07-08T04:25:35.347Z,105
2017-07-08T04:26:16.241Z,105
2017-07-08T04:26:57.131Z,105
2017-07-08T04:27:38.024Z,105
2017-07-08T04:28:18.932Z,105
2017-07-08T04:28:59.826Z,105
2017-07-08T04:29:40.716Z,105
2017-07-08T04:30:21.608Z,105
2017-07-08T04:31:02.502Z,105
2017-07-08T04:31:43.401Z,110
2017-07-08T04:32:24.292Z,115
2017-07-08T04:33:05.180Z,120
2017-07-08T04:33:46.058Z,125
2017-07-08T04:34:26.958Z,130
2017-07-08T04:35:07.845Z,135
2017-07-08T04:35:48.733Z,140
2017-07-08T04:36:29.634Z,140
2017-07-08T04:37:10.524Z,140
2017-07-08T04:37:51.416Z,140
2017-07-08T04:38:32.315Z,145
2017-07-08T04:39:13.200Z,145
2017-07-08T04:39:54.093Z,150
2017-07-08T04:40:34.998Z,150
2017-07-08T04:41:15.883Z,155
2017-07-08T04:41:56.766Z,155
2017-07-08T04:42:37.669Z,160
2017-07-08T04:43:18.553Z,160
2017-07-08T04:43:59.442Z,160
2017-07-08T04:44:40.359Z,160
2017-07-08T04:45:21.277Z,165
2017-07-08T04:46:02.167Z,165
2017-07-08T04:46:43.052Z,160
2017-07-08T04:47:23.956Z,160
2017-07-08T04:48:04.852Z,165
2017-07-08T04:48:45.748Z,165
2017-07-08T04:49:26.654Z,175
2017-07-08T04:50:07.545Z,185
2017-07-08T04:50:48.425Z,205
2017-07-08T04:51:29.344Z,200
2017-07-08T04:52:10.235Z,210
2017-07-08T04:52:51.130Z,215
2017-07-08T04:53:32.033Z,215
2017-07-08T04:54:12.916Z,215
2017-07-08T04:54:53.822Z,220
2017-07-08T04:55:34.863Z,230
2017-07-08T04:56:15.638Z,235
2017-07-08T04:56:56.539Z,240
2017-07-08T04:57:37.432Z,235
2017-07-08T04:58:18.321Z,230
2017-07-08T04:58:59.207Z,225
2017-07-08T04:59:40.105Z,225
2017-07-08T05:00:21.004Z,215
2017-07-08T05:01:01.893Z,205
2017-07-08T05:01:42.787Z,205
2017-07-08T05:02:23.682Z,200
2017-07-08T05:03:04.572Z,195
2017-07-08T05:03:45.484Z,195
2017-07-08T05:04:26.361Z,190
2017-07-08T05:05:07.261Z,190
2017-07-08T05:05:48.163Z,190
2017-07-08T05:06:29.040Z,190
2017-07-08T05:07:09.927Z,195
2017-07-08T05:07:50.813Z,205
2017-07-08T05:08:31.700Z,215
2017-07-08T05:09:12.601Z,225
2017-07-08T05:09:53.493Z,230
2017-07-08T05:10:34.393Z,235
2017-07-08T05:11:15.277Z,240
2017-07-08T05:11:56.185Z,245
2017-07-08T05:12:37.082Z,245
2017-07-08T05:13:17.964Z,235
2017-07-08T05:13:58.859Z,230
2017-07-08T05:14:39.746Z,230
2017-07-08T05:15:20.632Z,220
2017-07-08T05:16:01.539Z,220
2017-07-08T05:16:42.431Z,225
2017-07-08T05:17:23.317Z,230
2017-07-08T05:18:04.209Z,230
2017-07-08T05:18:45.092Z,235
2017-07-08T05:19:25.987Z,230
2017-07-08T05:20:06.892Z,235
2017-07-08T05:20:47.783Z,235
2017-07-08T05:21:28.687Z,240
2017-07-08T05:22:09.568Z,240
2017-07-08T05:22:50.456Z,235
2017-07-08T05:23:31.359Z,235
2017-07-08T05:24:12.240Z,225
2017-07-08T05:24:53.127Z,220
2017-07-08T05:25:34.003Z,215
2017-07-08T05:26:14.915Z,190
2017-07-08T05:26:55.794Z,170
2017-07-08T05:27:36.715Z,155
2017-07-08T05:28:17.600Z,150
2017-07-08T05:28:58.498Z,145
2017-07-08T05:29:39.414Z,140
2017-07-08T05:30:20.299Z,140
2017-07-08T05:31:01.188Z,135
2017-07-08T05:31:42.083Z,140
2017-07-08T05:32:22.970Z,145
2017-07-08T05:33:03.854Z,160
2017-07-08T05:33:44.753Z,170
2017-07-08T05:34:25.644Z,190
2017-07-08T05:35:06.535Z,210
2017-07-08T05:35:47.438Z,240
2017-07-08T05:36:28.345Z,255
2017-07-08T05:37:09.247Z,270
2017-07-08T05:37:50.136Z,275
2017-07-08T05:38:31.029Z,285
2017-07-08T05:39:11.927Z,300
2017-07-08T05:39:52.819Z,320
2017-07-08T05:40:33.699Z,320
2017-07-08T05:41:14.610Z,340
2017-07-08T05:41:55.485Z,350
2017-07-08T05:42:36.371Z,355
2017-07-08T05:43:17.284Z,360
2017-07-08T05:43:58.162Z,370
2017-07-08T05:44:39.045Z,375
2017-07-08T05:45:19.933Z,380
2017-07-08T05:46:00.830Z,385
2017-07-08T05:46:41.718Z,370
2017-07-08T05:47:22.607Z,345
2017-07-08T05:48:03.495Z,340
2017-07-08T05:48:44.377Z,335
2017-07-08T05:49:25.280Z,345
2017-07-08T05:50:06.148Z,355
2017-07-08T05:50:47.042Z,360
2017-07-08T05:51:27.930Z,375
2017-07-08T05:52:08.820Z,390
2017-07-08T05:52:49.714Z,390
2017-07-08T05:53:30.588Z,370
2017-07-08T05:54:11.469Z,340
2017-07-08T05:54:52.396Z,320
2017-07-08T05:55:33.279Z,305
2017-07-08T05:56:14.200Z,290
2017-07-08T05:56:55.100Z,280
2017-07-08T05:57:35.987Z,270
2017-07-08T05:58:16.875Z,265
2017-07-08T05:58:57.775Z,255
2017-07-08T05:59:38.679Z,245
2017-07-08T06:00:19.561Z,250
2017-07-08T06:01:00.463Z,255
2017-07-08T06:01:41.374Z,260
2017-07-08T06:02:22.241Z,270
2017-07-08T06:03:03.154Z,280
2017-07-08T06:03:44.060Z,290
2017-07-08T06:04:25.020Z,295
2017-07-08T06:05:05.988Z,305
2017-07-08T06:05:46.826Z,300
2017-07-08T06:06:27.726Z,295
2017-07-08T06:07:08.619Z,290
2017-07-08T06:07:49.512Z,290
2017-07-08T06:08:30.398Z,290
2017-07-08T06:09:11.291Z,290
2017-07-08T06:09:52.188Z,290
2017-07-08T06:10:33.073Z,285
2017-07-08T06:11:13.984Z,280
2017-07-08T06:11:54.881Z,275
2017-07-08T06:12:35.775Z,275
2017-07-08T06:13:16.669Z,280
2017-07-08T06:13:57.548Z,270
2017-07-08T06:14:38.440Z,265
2017-07-08T06:15:19.333Z,265
2017-07-08T06:16:00.224Z,265
2017-07-08T06:16:41.098Z,265
2017-07-08T06:17:22.015Z,270
2017-07-08T06:18:02.931Z,265
2017-07-08T06:18:43.849Z,260
2017-07-08T06:19:24.734Z,260
2017-07-08T06:20:05.627Z,250
2017-07-08T06:20:46.556Z,240
2017-07-08T06:21:27.476Z,235
2017-07-08T06:22:08.373Z,230
2017-07-08T06:22:49.290Z,240
2017-07-08T06:23:30.177Z,250
2017-07-08T06:24:11.074Z,245
2017-07-08T06:24:51.969Z,240
2017-07-08T06:25:32.895Z,235
2017-07-08T06:26:13.733Z,230
2017-07-08T06:26:54.634Z,225
2017-07-08T06:27:35.531Z,230
2017-07-08T06:28:16.429Z,230
2017-07-08T06:28:57.337Z,235
2017-07-08T06:29:38.214Z,225
2017-07-08T06:30:19.128Z,235
2017-07-08T06:31:00.003Z,240
2017-07-08T06:31:40.894Z,245
2017-07-08T06:32:21.781Z,240
2017-07-08T06:33:02.713Z,235
2017-07-08T06:33:43.620Z,230
2017-07-08T06:34:24.503Z,225
2017-07-08T06:35:05.398Z,220
2017-07-08T06:35:46.314Z,220
2017-07-08T06:36:27.201Z,225
2017-07-08T06:37:08.096Z,235
2017-07-08T06:37:48.979Z,250
2017-07-08T06:38:29.854Z,265
2017-07-08T06:39:10.741Z,275
2017-07-08T06:39:51.653Z,280
2017-07-08T06:40:32.514Z,275
2017-07-08T06:41:13.410Z,265
2017-07-08T06:43:13.187Z,265
2017-07-08T06:43:54.081Z,270
2017-07-08T06:44:35.007Z,270
2017-07-08T06:46:33.832Z,270
2017-07-08T06:47:14.733Z,275
2017-07-08T06:47:55.698Z,275
2017-07-08T06:48:36.577Z,275
2017-07-08T06:49:17.468Z,270
2017-07-08T06:49:58.529Z,275
2017-07-08T06:50:39.455Z,255
2017-07-08T06:51:20.350Z,245
2017-07-08T06:52:01.248Z,240
2017-07-08T06:52:42.134Z,225
2017-07-08T06:53:23.070Z,220
2017-07-08T06:54:04.046Z,215
2017-07-08T06:54:44.888Z,210
2017-07-08T06:55:25.793Z,210
2017-07-08T06:56:06.694Z,210
2017-07-08T06:56:47.574Z,215
2017-07-08T06:57:28.471Z,215
2017-07-08T06:58:09.360Z,220
2017-07-08T06:58:50.244Z,225
2017-07-08T06:59:31.122Z,225
2017-07-08T07:00:12.018Z,225
2017-07-08T07:00:52.911Z,230
2017-07-08T07:01:33.791Z,235
2017-07-08T07:02:14.684Z,240
2017-07-08T07:02:55.584Z,245
2017-07-08T07:03:36.478Z,250
2017-07-08T07:04:17.366Z,260
2017-07-08T07:04:58.264Z,270
2017-07-08T07:05:39.151Z,280
2017-07-08T07:06:20.034Z,285
2017-07-08T07:07:00.939Z,295
2017-07-08T07:07:41.824Z,300
2017-07-08T07:08:22.706Z,305
2017-07-08T07:09:03.603Z,305
2017-07-08T07:09:44.492Z,305
2017-07-08T07:10:25.384Z,305
2017-07-08T07:11:06.299Z,305
2017-07-08T07:11:47.186Z,310
2017-07-08T07:12:28.081Z,310
2017-07-08T07:13:08.977Z,310
2017-07-08T07:13:49.859Z,305
2017-07-08T07:14:30.746Z,300
2017-07-08T07:15:11.650Z,290
2017-07-08T07:15:52.526Z,275
2017-07-08T07:16:33.419Z,265
2017-07-08T07:17:14.318Z,255
2017-07-08T07:17:55.266Z,250
2017-07-08T07:18:36.358Z,250
2017-07-08T07:19:17.226Z,250
2017-07-08T07:19:58.116Z,255
2017-07-08T07:20:39.018Z,260
2017-07-08T07:21:19.901Z,265
2017-07-08T07:22:00.787Z,275
2017-07-08T07:22:41.692Z,285
2017-07-08T07:23:22.580Z,290
2017-07-08T07:24:03.514Z,290
2017-07-08T07:24:44.386Z,290
2017-07-08T07:25:25.274Z,295
2017-07-08T07:26:06.175Z,300
2017-07-08T07:26:47.074Z,310
2017-07-08T07:27:27.975Z,320
2017-07-08T07:28:08.871Z,320
2017-07-08T07:28:49.816Z,325
2017-07-08T07:29:30.656Z,320
2017-07-08T07:30:11.553Z,320
2017-07-08T07:30:52.456Z,320
2017-07-08T07:31:33.363Z,320
2017-07-08T07:32:14.250Z,320
2017-07-08T07:32:55.132Z,310
2017-07-08T07:33:36.031Z,300
2017-07-08T07:34:16.918Z,295
2017-07-08T07:34:57.825Z,295
2017-07-08T07:35:38.731Z,295
2017-07-08T07:36:19.608Z,295
2017-07-08T07:37:00.498Z,300
2017-07-08T07:37:41.432Z,305
2017-07-08T07:39:36.047Z,320
2017-07-08T07:40:16.950Z,335
2017-07-08T07:40:57.841Z,335
2017-07-08T07:41:38.742Z,335
2017-07-08T07:42:19.634Z,335
2017-07-08T07:43:00.524Z,335
2017-07-08T07:43:41.418Z,340
2017-07-08T07:44:22.346Z,345
2017-07-08T07:45:03.237Z,360
2017-07-08T07:45:44.129Z,380
2017-07-08T07:46:25.044Z,405
2017-07-08T07:47:05.982Z,430
2017-07-08T07:47:46.952Z,445
2017-07-08T07:48:28.034Z,425
2017-07-08T07:49:08.939Z,445
2017-07-08T07:49:49.863Z,415
2017-07-08T07:50:31.608Z,400
2017-07-08T07:51:14.274Z,390
2017-07-08T07:51:53.573Z,380
2017-07-08T07:52:34.499Z,370
2017-07-08T07:53:17.340Z,350
2017-07-08T07:54:01.989Z,335
2017-07-08T07:54:42.879Z,320
2017-07-08T07:55:23.787Z,300
2017-07-08T07:56:04.677Z,295
2017-07-08T07:56:45.579Z,305
2017-07-08T07:57:26.486Z,305
2017-07-08T07:58:07.373Z,300
2017-07-08T07:58:48.275Z,300
2017-07-08T07:59:29.173Z,320
2017-07-08T08:00:10.072Z,330
2017-07-08T08:00:50.967Z,335
2017-07-08T08:01:31.862Z,355
2017-07-08T08:02:12.762Z,380
2017-07-08T08:02:53.644Z,405
2017-07-08T08:03:34.534Z,430
2017-07-08T08:04:15.426Z,460
2017-07-08T08:04:56.341Z,500
2017-07-08T08:05:37.251Z,520
2017-07-08T08:06:18.145Z,545
2017-07-08T08:06:59.019Z,570
2017-07-08T08:07:39.923Z,565
2017-07-08T08:08:20.817Z,550
2017-07-08T08:09:01.712Z,510
2017-07-08T08:09:42.594Z,480
2017-07-08T08:10:23.503Z,455
2017-07-08T08:11:04.386Z,415
2017-07-08T08:11:45.294Z,400
2017-07-08T08:12:26.170Z,380
2017-07-08T08:13:07.061Z,375
2017-07-08T08:13:47.958Z,375
2017-07-08T08:14:28.851Z,370
2017-07-08T08:15:09.750Z,360
2017-07-08T08:15:50.651Z,350
2017-07-08T08:16:31.543Z,350
2017-07-08T08:17:12.441Z,350
2017-07-08T08:17:53.342Z,345
2017-07-08T08:18:34.221Z,340
2017-07-08T08:19:15.118Z,335
2017-07-08T08:19:56.033Z,330
2017-07-08T08:20:36.921Z,330
2017-07-08T08:21:17.821Z,330
2017-07-08T08:21:58.715Z,335
2017-07-08T08:22:39.601Z,340
2017-07-08T08:23:20.496Z,345
2017-07-08T08:24:01.401Z,350
2017-07-08T08:24:42.308Z,355
2017-07-08T08:25:23.201Z,360
2017-07-08T08:26:04.093Z,360
2017-07-08T08:26:44.993Z,365
2017-07-08T08:27:25.892Z,375
2017-07-08T08:28:06.788Z,385
2017-07-08T08:28:47.705Z,395
2017-07-08T08:29:28.577Z,410
2017-07-08T08:30:09.467Z,425
2017-07-08T08:30:50.362Z,425
2017-07-08T08:31:31.250Z,430
2017-07-08T08:32:12.141Z,450
2017-07-08T08:32:53.041Z,450
2017-07-08T08:33:33.933Z,445
2017-07-08T08:34:14.845Z,435
2017-07-08T08:34:55.741Z,435
2017-07-08T08:35:36.636Z,415
2017-07-08T08:36:17.524Z,410
2017-07-08T08:36:58.416Z,405
2017-07-08T08:37:39.309Z,395
2017-07-08T08:38:20.201Z,390
2017-07-08T08:39:01.103Z,385
2017-07-08T08:39:42.009Z,380
2017-07-08T08:40:22.905Z,380
2017-07-08T08:41:03.794Z,395
2017-07-08T08:41:44.695Z,410
2017-07-08T08:42:25.588Z,405
2017-07-08T08:43:06.466Z,430
2017-07-08T08:43:47.382Z,460
2017-07-08T08:44:28.282Z,480
2017-07-08T08:45:09.190Z,460
2017-07-08T08:45:50.081Z,465
2017-07-08T08:46:30.980Z,460
2017-07-08T08:47:11.883Z,470
2017-07-08T08:47:52.774Z,465
2017-07-08T08:48:33.667Z,490
2017-07-08T08:49:14.569Z,520
2017-07-08T08:49:55.465Z,495
2017-07-08T08:50:36.373Z,520
2017-07-08T08:51:17.282Z,570
2017-07-08T08:51:58.173Z,560
2017-07-08T08:52:39.071Z,580
2017-07-08T08:53:19.963Z,480
2017-07-08T08:54:00.863Z,470
2017-07-08T08:54:41.761Z,430
2017-07-08T08:55:22.650Z,425
2017-07-08T08:56:03.540Z,435
2017-07-08T08:56:44.434Z,430
2017-07-08T08:57:25.333Z,485
2017-07-08T08:58:06.238Z,540
2017-07-08T08:58:47.140Z,600
2017-07-08T08:59:28.040Z,685
2017-07-08T09:00:08.940Z,605
2017-07-08T09:00:49.835Z,560
2017-07-08T09:01:30.731Z,525
2017-07-08T09:02:11.632Z,500
2017-07-08T09:02:52.530Z,515
2017-07-08T09:03:33.421Z,540
2017-07-08T09:04:14.313Z,570
2017-07-08T09:04:55.208Z,615
2017-07-08T09:05:36.095Z,730
2017-07-08T09:06:17.050Z,635
2017-07-08T09:06:57.935Z,725
2017-07-08T09:07:38.830Z,665
2017-07-08T09:08:19.726Z,590
2017-07-08T09:09:00.629Z,515
2017-07-08T09:09:41.522Z,490
2017-07-08T09:10:22.429Z,455
2017-07-08T09:11:03.326Z,460
2017-07-08T09:11:44.235Z,555
2017-07-08T09:12:25.139Z,645
2017-07-08T09:13:06.018Z,615
2017-07-08T09:13:46.923Z,525
2017-07-08T09:14:27.821Z,550
2017-07-08T09:15:08.708Z,520
2017-07-08T09:15:49.598Z,490
2017-07-08T09:16:30.498Z,400
2017-07-08T09:17:11.395Z,380
2017-07-08T09:17:52.291Z,405
2017-07-08T09:18:33.185Z,330
2017-07-08T09:19:14.089Z,300
2017-07-08T09:19:55.018Z,295
2017-07-08T09:20:35.912Z,310
2017-07-08T09:21:16.801Z,340
2017-07-08T09:21:57.701Z,370
2017-07-08T09:22:38.588Z,405
2017-07-08T09:23:19.488Z,410
2017-07-08T09:24:00.375Z,390
2017-07-08T09:24:41.283Z,305
2017-07-08T09:25:22.178Z,300
2017-07-08T09:26:03.078Z,320
2017-07-08T09:26:43.967Z,345
2017-07-08T09:28:58.345Z,245
2017-07-08T09:29:39.243Z,245
2017-07-08T09:30:20.137Z,235
2017-07-08T09:31:01.025Z,225
2017-07-08T09:31:41.925Z,250
2017-07-08T09:32:22.827Z,320
2017-07-08T09:33:03.723Z,355
2017-07-08T09:33:44.607Z,360
2017-07-08T09:34:25.495Z,350
2017-07-08T09:35:06.379Z,360
2017-07-08T09:35:47.272Z,360
2017-07-08T09:36:28.165Z,360
2017-07-08T09:37:09.135Z,350
2017-07-08T09:37:50.030Z,345
2017-07-08T09:38:30.938Z,330
2017-07-08T09:39:11.800Z,305
2017-07-08T09:39:52.688Z,320
2017-07-08T09:40:33.589Z,340
2017-07-08T09:41:14.494Z,360
2017-07-08T09:41:55.388Z,380
2017-07-08T09:42:36.272Z,370
2017-07-08T09:43:17.169Z,365
2017-07-08T09:43:58.068Z,405
2017-07-08T09:44:38.970Z,505
2017-07-08T09:45:19.902Z,620